Flight Track Log - Related Links

Times and Time Zones

All times are in EDT time to prevent confusion due to time zone crossing. See the EJA982 flight status page for this flight to view local times or setup timezone preferences in your user account.

Time Position Orientation Groundspeed Altitude Reporting Facility
EDT Latitude Longitude Course Direction KTS MPH feet Rate Location/Type
Fri 01:44:12 PM 36.0672 -115.1764 212° Southwest 188 216 3,500  Level Los Angeles Center
Fri 01:45:19 PM 36.0081 -115.2225 212° Southwest 240 276 7,000 2,094 Climbing Los Angeles Center
Fri 01:45:58 PM 35.9850 -115.2514 225° Southwest 252 290 7,200 2,198 Climbing Los Angeles Center
Fri 01:47:00 PM 35.9228 -115.1936 143° Southeast 283 326 10,700 2,274 Climbing Los Angeles Center
Fri 01:48:02 PM 35.9106 -115.0756 97° East 336 387 11,900 1,645 Climbing Los Angeles Center
Fri 01:49:04 PM 35.8958 -114.9447 98° East 373 429 14,100 2,032 Climbing Los Angeles Center
Fri 01:50:06 PM 35.8806 -114.8089 98° East 392 451 16,100 1,887 Climbing Los Angeles Center
Fri 01:51:08 PM 35.8644 -114.6689 98° East 407 468 18,000 2,032 Climbing Los Angeles Center
Fri 01:52:10 PM 35.8100 -114.5089 113° Southeast 425 489 20,300 1,790 Climbing Los Angeles Center
Fri 01:53:12 PM 35.7442 -114.3847 123° Southeast 430 495 21,700 1,355 Climbing Los Angeles Center
Fri 01:54:14 PM 35.6744 -114.2558 124° Southeast 444 511 23,100 1,548 Climbing Los Angeles Center
Fri 01:55:16 PM 35.5978 -114.1094 123° Southeast 470 541 24,900 1,488 Climbing Los Angeles Center
Fri 01:56:19 PM 35.5242 -113.9742 124° Southeast 478 550 26,200 1,200 Climbing Los Angeles Center
Fri 01:57:21 PM 35.4511 -113.8369 123° Southeast 483 556 27,400 1,258 Climbing Los Angeles Center
Fri 01:58:23 PM 35.3747 -113.6972 124° Southeast 495 570 28,800 1,258 Climbing Los Angeles Center
Fri 01:59:25 PM 35.2975 -113.5556 124° Southeast 503 579 30,000 1,355 Climbing Los Angeles Center
Fri 02:00:27 PM 35.2036 -113.3844 124° Southeast 511 588 31,600 1,694 Climbing Los Angeles Center
Fri 02:01:29 PM 35.1239 -113.2417 124° Southeast 516 594 33,500 1,759 Climbing Los Angeles Center
Fri 02:02:23 PM 35.0458 -113.0989 124° Southeast 516 594 35,000 776 Climbing Albuquerque Center
Fri 02:03:25 PM 34.9647 -112.9514 124° Southeast 522 601 35,000  Level Albuquerque Center
Fri 02:04:27 PM 34.8800 -112.7989 124° Southeast 541 623 35,000  Level Albuquerque Center
Fri 02:05:28 PM 34.7969 -112.6483 124° Southeast 544 626 35,000  Level Albuquerque Center
Fri 02:06:30 PM 34.7072 -112.5011 127° Southeast 544 626 35,000  Level Albuquerque Center
Fri 02:07:32 PM 34.5508 -112.4156 156° South 513 590 35,000  Level Albuquerque Center
Fri 02:08:34 PM 34.4103 -112.3594 162° South 511 588 35,000  Level Albuquerque Center
Fri 02:09:36 PM 34.2767 -112.3075 162° South 507 583 35,000  Level Albuquerque Center
Fri 02:10:38 PM 34.1456 -112.2542 161° South 501 577 35,000 -48 Level Albuquerque Center
Fri 02:11:40 PM 34.0158 -112.2031 162° South 497 572 34,900 -968 Descending Albuquerque Center
Fri 02:12:42 PM 33.8825 -112.1486 161° South 511 588 33,000 -1,161 Descending Albuquerque Center
Fri 02:13:44 PM 33.7225 -112.0853 162° South 510 587 32,500 -829 Descending Albuquerque Center
Fri 02:14:45 PM 33.5886 -112.0311 161° South 510 587 31,300 -1,317 Descending Albuquerque Center
Fri 02:15:47 PM 33.4508 -111.9769 162° South 517 595 29,800 -2,177 Descending Albuquerque Center
Fri 02:16:49 PM 33.3061 -111.9542 173° South 521 600 26,800 -2,226 Descending Albuquerque Center
Fri 02:17:51 PM 33.1497 -111.9378 175° South 498 573 25,200 -1,548 Descending Albuquerque Center
Fri 02:18:53 PM 33.0422 -111.9244 174° South 471 542 23,600 -1,548 Descending Albuquerque Center
Fri 02:19:55 PM 32.8900 -111.9031 173° South 460 529 22,000 -1,610 Descending Albuquerque Center
Fri 02:20:56 PM 32.7825 -111.8217 148° Southeast 457 526 20,300 -1,854 Descending Albuquerque Center
Fri 02:21:58 PM 32.6789 -111.7353 145° Southeast 456 525 18,200 -2,131 Descending Albuquerque Center
Fri 02:22:43 PM 32.5939 -111.6711 148° Southeast 455 524 16,500 -2,268 Descending Albuquerque Center
Fri 02:23:20 PM 32.5381 -111.6128 139° Southeast 446 513 15,100 -1,823 Descending Albuquerque Center
Fri 02:24:02 PM 32.5000 -111.5475 125° Southeast 432 497 14,100 -1,398 Descending Albuquerque Center
Fri 02:25:03 PM 32.4456 -111.4475 123° Southeast 378 435 12,700 -1,781 Descending Albuquerque Center
Fri 02:26:10 PM 32.3831 -111.3383 124° Southeast 315 362 10,300 -1,790 Descending Albuquerque Center
Fri 02:27:07 PM 32.3442 -111.2650 122° Southeast 298 343 9,000 -1,160 Descending Albuquerque Center
Fri 02:28:09 PM 32.3039 -111.1911 123° Southeast 276 318 8,000 -1,403 Descending Albuquerque Center
Fri 02:29:11 PM 32.2639 -111.1203 124° Southeast 266 306 6,100 -1,561 Descending Albuquerque Center
Fri 02:30:12 PM 32.2094 -111.0497 132° Southeast 278 320 4,800 -1,230 Descending Albuquerque Center
Fri 02:31:13 PM 32.1592 -110.9903 135° Southeast 225 259 3,600 -992 Descending Albuquerque Center
Fri 02:32:13 PM 32.1289 -110.9556 136° Southeast 146 168 2,800 -800 Descending Albuquerque Center
Fri 02:34:00 PM 32.1161 -110.9410 132° Southeast  Level Estimated

Login

Don't have an account? Register now (free) for customized features, flight alerts, and more!